Time;durP1;ratioP1;P1;durP2;ratioP2;P2;SDS_P1;SDS_P2;PMS_P1;PMS_P2;Temp;Humidity;BMP_temperature;BMP_pressure;BME280_temperature;BME280_humidity;BME280_pressure;Samples;Min_cycle;Max_cycle;Signal;HPM_P1;HPM_P2
2022/06/24 00:01:15;;;;;;;15.75;11.45;;;;;;;22.98;100.00;100680.66;5034508;28;20079;-71
2022/06/24 00:03:45;;;;;;;12.85;11.45;;;;;;;22.87;100.00;100670.34;5035641;28;20428;-71
2022/06/24 00:06:15;;;;;;;13.75;11.27;;;;;;;22.77;100.00;100668.91;5034980;28;20531;-71
2022/06/24 00:08:51;;;;;;;15.43;11.45;;;;;;;22.78;100.00;100662.63;5033516;28;20095;-71
2022/06/24 00:11:22;;;;;;;15.90;12.45;;;;;;;22.82;100.00;100660.72;5033260;28;20025;-70
2022/06/24 00:13:47;;;;;;;17.38;12.25;;;;;;;22.84;100.00;100659.72;5032436;28;20485;-70
2022/06/24 00:16:13;;;;;;;16.67;11.73;;;;;;;22.84;100.00;100659.72;5034661;28;20041;-71
2022/06/24 00:18:38;;;;;;;19.20;12.88;;;;;;;22.84;100.00;100654.38;5034409;28;20025;-71
2022/06/24 00:21:12;;;;;;;18.60;11.93;;;;;;;22.76;100.00;100645.69;5034060;28;20022;-72
2022/06/24 00:23:40;;;;;;;16.55;12.10;;;;;;;22.75;100.00;100635.91;5031679;28;20029;-71
2022/06/24 00:26:06;;;;;;;19.70;12.27;;;;;;;22.71;100.00;100634.28;5030407;28;20113;-71
2022/06/24 00:28:31;;;;;;;15.20;11.95;;;;;;;22.63;100.00;100633.69;5035056;28;20380;-71
2022/06/24 00:30:57;;;;;;;17.13;11.98;;;;;;;22.58;100.00;100636.53;5034426;28;20035;-71
2022/06/24 00:33:24;;;;;;;19.40;12.73;;;;;;;22.55;100.00;100647.38;5024229;28;20497;-71
2022/06/24 00:35:59;;;;;;;18.35;11.35;;;;;;;22.37;100.00;100652.47;5033339;28;20034;-69
2022/06/24 00:38:33;;;;;;;17.63;10.95;;;;;;;22.27;100.00;100668.91;5026773;28;20033;-71
2022/06/24 00:41:03;;;;;;;18.70;11.25;;;;;;;22.24;100.00;100676.13;5032534;28;20024;-70
2022/06/24 00:43:31;;;;;;;15.88;10.35;;;;;;;22.28;100.00;100684.06;5034198;28;20045;-71
2022/06/24 00:46:05;;;;;;;14.07;10.00;;;;;;;22.30;100.00;100695.59;5028698;28;20105;-71
2022/06/24 00:48:38;;;;;;;16.60;8.55;;;;;;;22.27;100.00;100714.47;5024421;28;20048;-71
2022/06/24 00:51:04;;;;;;;19.52;10.85;;;;;;;22.23;100.00;100719.94;5033423;28;20029;-72
2022/06/24 00:53:30;;;;;;;22.75;14.05;;;;;;;21.82;100.00;100743.59;5034811;28;20121;-73
2022/06/24 00:55:55;;;;;;;24.92;16.73;;;;;;;21.08;100.00;100748.50;5032940;28;20109;-73
2022/06/24 00:58:20;;;;;;;33.13;18.98;;;;;;;20.60;100.00;100760.47;5033001;28;20061;-73
2022/06/24 01:00:49;;;;;;;37.13;22.02;;;;;;;20.34;100.00;100774.50;5034320;28;20440;-72
2022/06/24 01:03:14;;;;;;;53.42;28.25;;;;;;;20.21;100.00;100785.50;5027368;28;20048;-72
2022/06/24 01:05:41;;;;;;;54.83;29.48;;;;;;;20.21;100.00;100788.19;5030838;28;20033;-72
2022/06/24 01:08:10;;;;;;;59.20;35.30;;;;;;;20.33;100.00;100778.09;5033867;28;20030;-73
2022/06/24 01:10:37;;;;;;;119.32;44.58;;;;;;;20.39;100.00;100775.28;5033356;28;20017;-72
2022/06/24 01:13:07;;;;;;;90.40;44.75;;;;;;;20.48;100.00;100776.81;5034480;28;20033;-72
2022/06/24 01:15:32;;;;;;;131.25;49.35;;;;;;;20.44;100.00;100773.34;5027863;28;20022;-72
2022/06/24 01:17:57;;;;;;;135.18;50.33;;;;;;;20.60;100.00;100775.63;5033695;28;20025;-74
2022/06/24 01:20:23;;;;;;;83.63;46.08;;;;;;;20.47;100.00;100791.09;5032872;28;20483;-73
2022/06/24 01:22:48;;;;;;;63.05;37.78;;;;;;;20.42;100.00;100799.25;5032252;28;20492;-73
2022/06/24 01:25:13;;;;;;;63.47;37.90;;;;;;;20.30;100.00;100811.13;5030886;28;20489;-73
2022/06/24 01:27:39;;;;;;;90.68;52.63;;;;;;;20.52;100.00;100810.59;5029026;28;20049;-73
2022/06/24 01:30:05;;;;;;;116.85;56.03;;;;;;;20.50;100.00;100801.75;5033646;28;20504;-73
2022/06/24 01:32:30;;;;;;;99.63;47.38;;;;;;;20.31;100.00;100796.84;5032734;28;20089;-73
2022/06/24 01:34:56;;;;;;;89.50;50.25;;;;;;;20.39;100.00;100794.00;5031678;28;20474;-73
2022/06/24 01:37:25;;;;;;;95.57;53.33;;;;;;;20.40;100.00;100790.38;5034104;28;20419;-73
2022/06/24 01:39:50;;;;;;;133.57;50.80;;;;;;;20.30;100.00;100781.72;5033514;28;20466;-72
2022/06/24 01:42:16;;;;;;;92.18;49.70;;;;;;;20.21;100.00;100776.59;5030126;28;20078;-72
2022/06/24 01:44:42;;;;;;;81.82;42.15;;;;;;;20.31;100.00;100756.75;5031051;28;20029;-73
2022/06/24 01:47:07;;;;;;;76.32;44.83;;;;;;;20.34;100.00;100747.78;5031785;28;20025;-73
2022/06/24 01:49:32;;;;;;;64.32;38.20;;;;;;;20.19;100.00;100739.22;5032765;28;20036;-72
2022/06/24 01:52:01;;;;;;;51.60;30.35;;;;;;;19.94;100.00;100733.63;5033471;28;20104;-72
2022/06/24 01:54:27;;;;;;;70.97;40.03;;;;;;;19.91;100.00;100727.47;5033316;28;20040;-72
2022/06/24 01:56:53;;;;;;;54.40;33.25;;;;;;;19.75;100.00;100709.13;5032343;28;20083;-73
2022/06/24 01:59:19;;;;;;;45.72;31.15;;;;;;;19.63;100.00;100685.38;5031471;28;20103;-72
2022/06/24 02:01:44;;;;;;;62.28;37.47;;;;;;;19.65;100.00;100667.53;5032605;28;20080;-73
2022/06/24 02:04:11;;;;;;;81.93;44.53;;;;;;;19.79;100.00;100672.53;5033476;28;20033;-72
2022/06/24 02:06:36;;;;;;;83.00;46.85;;;;;;;19.74;100.00;100678.00;5021289;28;20474;-73
2022/06/24 02:09:02;;;;;;;105.40;53.97;;;;;;;19.84;100.00;100689.38;5032788;28;20087;-72
2022/06/24 02:14:13;;;;;;;86.30;48.05;;;;;;;19.75;100.00;100671.75;5029914;28;20084;-73
2022/06/24 02:16:39;;;;;;;117.20;60.95;;;;;;;19.96;100.00;100669.50;5029066;28;20115;-72
2022/06/24 02:19:04;;;;;;;83.63;47.28;;;;;;;19.80;100.00;100669.84;5032066;28;20067;-72
2022/06/24 02:21:30;;;;;;;57.22;35.42;;;;;;;19.71;100.00;100667.41;5032931;28;20033;-72
2022/06/24 02:23:56;;;;;;;70.95;38.13;;;;;;;19.69;100.00;100661.22;5032093;28;20191;-71
2022/06/24 02:26:22;;;;;;;66.53;39.03;;;;;;;19.70;100.00;100652.31;5028154;28;20392;-72
2022/06/24 02:28:47;;;;;;;64.22;36.60;;;;;;;19.73;100.00;100646.00;5033116;28;20036;-71
2022/06/24 02:31:13;;;;;;;77.55;41.38;;;;;;;19.75;100.00;100637.06;5032420;28;20025;-71
2022/06/24 02:33:39;;;;;;;64.53;38.20;;;;;;;19.75;100.00;100626.38;5033045;28;20112;-73
2022/06/24 02:36:05;;;;;;;66.95;40.42;;;;;;;19.81;100.00;100631.56;5030376;28;20366;-72
2022/06/24 02:38:30;;;;;;;59.97;36.15;;;;;;;19.63;100.00;100631.97;5032051;28;20037;-72
2022/06/24 02:40:57;;;;;;;69.97;36.47;;;;;;;19.63;100.00;100624.88;5031794;28;20033;-72
2022/06/24 02:43:25;;;;;;;46.67;28.90;;;;;;;19.57;100.00;100632.16;5030943;28;20021;-72
2022/06/24 02:45:52;;;;;;;38.15;25.98;;;;;;;19.57;100.00;100642.81;5031848;28;20599;-72
2022/06/24 02:48:18;;;;;;;33.17;23.13;;;;;;;19.42;100.00;100628.06;5032013;28;20035;-72
2022/06/24 02:50:46;;;;;;;38.40;24.63;;;;;;;19.44;100.00;100645.78;5031995;28;20512;-72
2022/06/24 02:53:14;;;;;;;44.08;25.83;;;;;;;19.41;100.00;100629.88;5032323;28;20769;-72
2022/06/24 02:55:41;;;;;;;43.75;29.67;;;;;;;19.53;100.00;100618.88;5031035;28;20033;-72
2022/06/24 02:58:07;;;;;;;55.63;34.17;;;;;;;19.67;100.00;100607.00;5032225;28;20025;-72
2022/06/24 03:00:32;;;;;;;47.17;29.88;;;;;;;19.70;100.00;100606.91;5032568;28;20453;-72
2022/06/24 03:02:58;;;;;;;44.03;28.85;;;;;;;19.65;100.00;100616.81;5036329;28;20153;-72
2022/06/24 03:05:24;;;;;;;40.03;24.80;;;;;;;19.63;100.00;100621.31;5032454;28;20473;-72
2022/06/24 03:07:49;;;;;;;35.75;22.63;;;;;;;19.43;100.00;100625.34;5030063;28;20025;-72
2022/06/24 03:10:15;;;;;;;29.55;21.52;;;;;;;19.25;100.00;100629.34;5036540;28;20033;-72
2022/06/24 03:12:41;;;;;;;29.02;19.95;;;;;;;19.13;100.00;100622.47;5035938;28;20366;-72
2022/06/24 03:15:07;;;;;;;34.72;23.48;;;;;;;19.04;100.00;100625.34;5031867;28;20539;-72
2022/06/24 03:17:32;;;;;;;43.55;24.52;;;;;;;19.10;100.00;100643.00;5032534;28;20401;-72
2022/06/24 03:19:58;;;;;;;36.75;24.85;;;;;;;19.11;100.00;100645.63;5035309;28;20036;-72
2022/06/24 03:22:23;;;;;;;45.60;26.48;;;;;;;19.25;100.00;100657.78;5033438;28;20358;-72
2022/06/24 03:24:48;;;;;;;31.20;21.90;;;;;;;19.09;100.00;100663.47;5035455;28;20072;-72
2022/06/24 03:27:14;;;;;;;33.38;22.65;;;;;;;19.11;100.00;100666.09;5035806;28;20032;-73
2022/06/24 03:29:39;;;;;;;25.17;19.63;;;;;;;18.96;100.00;100662.84;5036234;28;20056;-72
2022/06/24 03:32:04;;;;;;;31.45;21.25;;;;;;;18.97;100.00;100653.94;5034065;28;20052;-72
2022/06/24 03:34:30;;;;;;;27.00;19.05;;;;;;;18.81;100.00;100653.34;5035216;28;20445;-72
2022/06/24 03:36:55;;;;;;;28.08;18.55;;;;;;;18.80;100.00;100643.59;5035377;28;20044;-72
2022/06/24 03:39:20;;;;;;;27.38;20.83;;;;;;;18.83;100.00;100642.66;5029188;28;20040;-72
2022/06/24 03:41:46;;;;;;;26.85;21.02;;;;;;;18.89;100.00;100647.03;5032652;28;20029;-72
2022/06/24 03:44:11;;;;;;;28.13;21.13;;;;;;;18.92;100.00;100638.94;5035461;28;20036;-73
2022/06/24 03:46:36;;;;;;;33.60;23.30;;;;;;;19.02;100.00;100635.19;5033311;28;20025;-72
2022/06/24 03:49:02;;;;;;;27.83;21.67;;;;;;;19.06;100.00;100634.22;5033699;28;20358;-73
2022/06/24 03:51:27;;;;;;;31.10;21.25;;;;;;;18.96;100.00;100629.97;5034866;28;20022;-73
2022/06/24 03:53:52;;;;;;;29.48;22.13;;;;;;;19.07;100.00;100624.41;5034439;28;20056;-72
2022/06/24 03:56:18;;;;;;;30.67;22.52;;;;;;;19.13;100.00;100621.63;5033919;28;20492;-72
2022/06/24 03:58:43;;;;;;;25.88;19.13;;;;;;;19.04;100.00;100620.00;5036128;28;20028;-72
2022/06/24 04:01:08;;;;;;;23.08;18.85;;;;;;;18.96;100.00;100624.63;5035463;28;20025;-72
2022/06/24 04:03:34;;;;;;;20.92;18.02;;;;;;;18.98;100.00;100633.50;5034011;28;20374;-73
2022/06/24 04:05:59;;;;;;;28.65;20.27;;;;;;;19.04;100.00;100626.25;5033943;28;20118;-72
2022/06/24 04:08:24;;;;;;;23.67;17.98;;;;;;;19.10;100.00;100613.66;5034607;28;20064;-72
2022/06/24 04:10:50;;;;;;;23.90;19.17;;;;;;;19.12;100.00;100612.72;5035438;28;20087;-73
2022/06/24 04:13:15;;;;;;;31.60;19.83;;;;;;;19.04;100.00;100606.69;5033863;28;20108;-73
2022/06/24 04:15:49;;;;;;;28.40;19.50;;;;;;;19.03;100.00;100605.81;5034702;28;20036;-73
2022/06/24 04:18:15;;;;;;;26.40;20.85;;;;;;;19.03;100.00;100604.91;5035688;28;20096;-73
2022/06/24 04:20:41;;;;;;;24.45;19.58;;;;;;;19.05;100.00;100600.44;5034532;28;20086;-72
2022/06/24 04:23:06;;;;;;;25.15;19.17;;;;;;;19.11;100.00;100592.28;5032142;28;20492;-72
2022/06/24 04:25:31;;;;;;;21.63;16.98;;;;;;;19.04;100.00;100588.91;5029544;28;20037;-72
2022/06/24 04:27:57;;;;;;;30.45;22.48;;;;;;;19.23;100.00;100574.25;5034834;28;20156;-73
2022/06/24 04:30:22;;;;;;;29.58;20.83;;;;;;;19.12;100.00;100575.38;5034975;28;20033;-72
2022/06/24 04:32:47;;;;;;;23.00;18.20;;;;;;;19.08;100.00;100565.69;5035052;28;20036;-73
2022/06/24 04:35:13;;;;;;;23.42;16.50;;;;;;;19.06;100.00;100567.53;5033719;28;20397;-73
2022/06/24 04:37:40;;;;;;;20.55;15.93;;;;;;;19.11;100.00;100573.63;5034869;28;20350;-73
2022/06/24 04:40:11;;;;;;;20.35;15.23;;;;;;;19.06;100.00;100570.19;5034512;28;20388;-72
2022/06/24 04:42:37;;;;;;;20.60;16.30;;;;;;;19.12;100.00;100572.72;5034250;28;20037;-73
2022/06/24 04:45:04;;;;;;;25.10;16.35;;;;;;;19.15;100.00;100572.66;5025587;28;20393;-73
2022/06/24 04:47:29;;;;;;;20.65;15.88;;;;;;;19.15;100.00;100574.44;5033930;28;20041;-73
2022/06/24 04:49:55;;;;;;;20.65;14.80;;;;;;;19.10;100.00;100573.66;5033026;28;20021;-72
2022/06/24 04:52:21;;;;;;;18.75;15.10;;;;;;;19.11;100.00;100570.06;5033564;28;20405;-72
2022/06/24 04:54:47;;;;;;;22.25;15.75;;;;;;;19.12;100.00;100567.38;5032227;28;20465;-73
2022/06/24 04:57:13;;;;;;;23.73;14.93;;;;;;;19.12;100.00;100569.19;5034687;28;20057;-74
2022/06/24 04:59:39;;;;;;;18.88;14.65;;;;;;;19.09;100.00;100571.91;5034146;28;20060;-72
2022/06/24 05:02:05;;;;;;;20.73;15.02;;;;;;;19.05;100.00;100571.09;5034500;28;20032;-73
2022/06/24 05:04:30;;;;;;;22.05;16.25;;;;;;;19.10;100.00;100576.31;5032707;28;20108;-72
2022/06/24 05:06:56;;;;;;;19.48;16.23;;;;;;;19.11;100.00;100586.09;5034102;28;20021;-72
2022/06/24 05:09:21;;;;;;;26.38;17.17;;;;;;;19.18;100.00;100585.00;5032857;28;20116;-72
2022/06/24 05:11:48;;;;;;;22.05;15.73;;;;;;;19.14;100.00;100584.22;5033710;28;20029;-72
2022/06/24 05:14:14;;;;;;;23.02;15.85;;;;;;;19.19;100.00;100585.00;5033674;28;20049;-72
2022/06/24 05:16:41;;;;;;;25.30;17.45;;;;;;;19.25;100.00;100577.75;5033111;28;20057;-71
2022/06/24 05:19:07;;;;;;;22.42;16.70;;;;;;;19.26;100.00;100584.84;5023990;28;20037;-73
2022/06/24 05:21:32;;;;;;;19.95;16.15;;;;;;;19.28;100.00;100583.03;5031266;28;20116;-73
2022/06/24 05:23:58;;;;;;;21.73;14.55;;;;;;;19.28;100.00;100575.03;5031961;28;20121;-73
2022/06/24 05:26:23;;;;;;;20.80;16.42;;;;;;;19.27;100.00;100576.81;5032930;28;20065;-73
2022/06/24 05:28:48;;;;;;;24.90;15.82;;;;;;;19.24;100.00;100576.03;5033340;28;20079;-73
2022/06/24 05:31:14;;;;;;;20.80;15.57;;;;;;;19.23;100.00;100582.25;5034030;28;20057;-72
2022/06/24 05:33:39;;;;;;;24.63;17.90;;;;;;;19.33;100.00;100586.44;5028977;28;20037;-73
2022/06/24 05:36:04;;;;;;;25.17;17.98;;;;;;;19.37;100.00;100589.03;5030365;28;20034;-73
2022/06/24 05:38:30;;;;;;;23.60;18.75;;;;;;;19.34;100.00;100588.22;5030263;28;20536;-73
2022/06/24 05:40:55;;;;;;;28.00;19.45;;;;;;;19.31;100.00;100586.50;5029924;28;20051;-72
2022/06/24 05:43:21;;;;;;;23.85;18.33;;;;;;;19.21;100.00;100584.97;5032588;28;20025;-73
2022/06/24 05:45:47;;;;;;;21.88;18.27;;;;;;;19.21;100.00;100585.84;5033774;28;20037;-73
2022/06/24 05:48:14;;;;;;;28.60;19.13;;;;;;;19.25;100.00;100586.66;5031601;28;20035;-72
2022/06/24 05:50:40;;;;;;;25.30;18.40;;;;;;;19.23;100.00;100590.25;5033472;28;20424;-71
2022/06/24 05:55:50;;;;;;;26.65;18.98;;;;;;;19.26;100.00;100598.19;5028400;28;20052;-72
2022/06/24 05:58:16;;;;;;;30.80;21.20;;;;;;;19.18;100.00;100598.34;5030739;28;20030;-70
2022/06/24 06:00:42;;;;;;;42.35;26.73;;;;;;;19.25;100.00;100601.75;5030424;28;20032;-74
2022/06/24 06:03:07;;;;;;;38.67;27.15;;;;;;;19.21;100.00;100609.84;5031839;28;20104;-74
2022/06/24 06:05:32;;;;;;;42.13;28.50;;;;;;;19.26;100.00;100611.53;5029301;28;20052;-74
2022/06/24 06:07:58;;;;;;;37.58;27.25;;;;;;;19.17;100.00;100613.50;5031721;28;20476;-75
2022/06/24 06:10:23;;;;;;;38.90;26.75;;;;;;;19.11;100.00;100602.09;5023032;28;20018;-75
2022/06/24 06:12:48;;;;;;;39.53;28.40;;;;;;;19.09;100.00;100604.78;5030491;28;20021;-74
2022/06/24 06:15:14;;;;;;;41.25;26.00;;;;;;;19.02;100.00;100605.84;5024089;28;20433;-73
2022/06/24 06:17:39;;;;;;;39.92;25.60;;;;;;;19.00;100.00;100599.66;5023928;28;20517;-73
2022/06/24 06:20:05;;;;;;;35.40;25.35;;;;;;;19.03;100.00;100607.59;5027160;28;20025;-74
2022/06/24 06:22:31;;;;;;;39.35;25.95;;;;;;;19.02;100.00;100603.19;5033069;28;20429;-74
2022/06/24 06:24:56;;;;;;;38.25;25.27;;;;;;;18.98;100.00;100612.16;5031863;28;20393;-73
2022/06/24 06:27:22;;;;;;;39.03;25.48;;;;;;;18.96;100.00;100619.31;5030530;28;20057;-73
2022/06/24 06:29:47;;;;;;;36.78;25.63;;;;;;;18.91;100.00;100606.09;5033393;28;20025;-73
2022/06/24 06:32:13;;;;;;;32.80;23.67;;;;;;;18.93;100.00;100614.03;5032226;28;20104;-74
2022/06/24 06:34:38;;;;;;;39.83;23.10;;;;;;;18.89;100.00;100612.38;5032948;28;20086;-74
2022/06/24 06:37:04;;;;;;;32.33;20.98;;;;;;;18.93;100.00;100614.03;5031836;28;20028;-74
2022/06/24 06:39:29;;;;;;;24.63;16.85;;;;;;;18.83;100.00;100616.88;5031982;28;20036;-74
2022/06/24 06:41:54;;;;;;;21.85;16.42;;;;;;;18.81;100.00;100612.47;5032351;28;20112;-74
2022/06/24 06:44:20;;;;;;;20.25;14.90;;;;;;;18.76;100.00;100617.94;5032647;28;20397;-74
2022/06/24 06:46:45;;;;;;;22.55;16.23;;;;;;;18.76;100.00;100609.94;5028996;28;20066;-73
2022/06/24 06:49:10;;;;;;;22.85;16.33;;;;;;;18.76;100.00;100614.38;5032076;28;20029;-72
2022/06/24 06:51:36;;;;;;;21.90;16.13;;;;;;;18.75;100.00;100625.97;5031021;28;20031;-73
2022/06/24 06:54:02;;;;;;;27.33;16.92;;;;;;;18.65;100.00;100625.25;5032463;28;20378;-74
2022/06/24 06:56:27;;;;;;;22.42;17.30;;;;;;;18.70;100.00;100624.22;5028845;28;20029;-72
2022/06/24 06:58:52;;;;;;;24.85;18.27;;;;;;;18.76;100.00;100623.25;5026955;28;20025;-72
2022/06/24 07:01:18;;;;;;;23.10;17.15;;;;;;;18.84;100.00;100626.63;5031020;28;20441;-73
2022/06/24 07:03:43;;;;;;;23.35;15.68;;;;;;;18.92;100.00;100634.47;5031908;28;20039;-74
2022/06/24 07:06:08;;;;;;;20.20;14.45;;;;;;;18.92;100.00;100629.16;5026166;28;20044;-74
2022/06/24 07:08:34;;;;;;;19.05;14.57;;;;;;;18.97;100.00;100637.94;5031779;28;20025;-73
2022/06/24 07:10:59;;;;;;;23.77;15.48;;;;;;;19.05;100.00;100635.09;5032259;28;20021;-74
2022/06/24 07:13:25;;;;;;;20.33;13.63;;;;;;;19.15;100.00;100635.78;5028798;28;20057;-73
2022/06/24 07:15:50;;;;;;;17.67;13.40;;;;;;;19.12;100.00;100633.19;5023862;28;20036;-74
2022/06/24 07:18:15;;;;;;;20.00;12.82;;;;;;;19.14;100.00;100634.00;5028616;28;20024;-74
2022/06/24 07:20:42;;;;;;;17.05;12.50;;;;;;;19.20;100.00;100636.56;5032451;28;20029;-73
2022/06/24 07:23:08;;;;;;;18.92;11.13;;;;;;;19.18;100.00;100639.25;5029261;28;20029;-73
2022/06/24 07:25:33;;;;;;;14.60;10.13;;;;;;;19.04;100.00;100642.25;5026746;28;20187;-73
2022/06/24 07:27:59;;;;;;;16.58;11.52;;;;;;;19.11;100.00;100631.41;5032401;28;20026;-74
2022/06/24 07:30:24;;;;;;;15.15;11.55;;;;;;;19.23;100.00;100628.47;5032009;28;20061;-74
2022/06/24 07:32:50;;;;;;;17.70;12.50;;;;;;;19.19;100.00;100630.34;5032002;28;20489;-74
2022/06/24 07:35:15;;;;;;;17.70;12.95;;;;;;;19.28;100.00;100623.06;5031118;28;20100;-73
2022/06/24 07:37:41;;;;;;;18.08;14.18;;;;;;;19.34;100.00;100620.22;5030730;28;20036;-74
2022/06/24 07:40:07;;;;;;;23.15;15.00;;;;;;;19.33;100.00;100618.47;5031516;28;20072;-74
2022/06/24 07:42:34;;;;;;;22.98;14.82;;;;;;;19.37;100.00;100617.47;5031896;28;20029;-74
2022/06/24 07:44:59;;;;;;;24.55;15.35;;;;;;;19.29;100.00;100627.44;5031715;28;20029;-74
2022/06/24 07:47:24;;;;;;;19.42;15.50;;;;;;;19.26;100.00;100622.19;5032408;28;20107;-74
2022/06/24 07:49:50;;;;;;;25.92;16.85;;;;;;;19.31;100.00;100620.31;5035175;28;20056;-74
2022/06/24 07:52:15;;;;;;;28.27;16.17;;;;;;;19.30;100.00;100619.44;5034766;28;20187;-74
2022/06/24 07:54:40;;;;;;;19.45;14.38;;;;;;;19.42;100.00;100618.25;5036529;28;20053;-76
2022/06/24 07:57:06;;;;;;;26.20;15.50;;;;;;;19.43;100.00;100613.81;5034285;28;20021;-75
2022/06/24 07:59:36;;;;;;;25.45;16.30;;;;;;;19.51;100.00;100623.38;5030756;28;20037;-74
2022/06/24 08:02:07;;;;;;;26.80;15.38;;;;;;;19.57;100.00;100616.13;5035518;28;20028;-74
2022/06/24 08:04:33;;;;;;;24.38;16.75;;;;;;;19.60;100.00;100616.94;5035918;28;20025;-74
2022/06/24 08:06:59;;;;;;;29.33;17.08;;;;;;;19.64;100.00;100623.06;5033458;28;20087;-75
2022/06/24 08:09:27;;;;;;;23.58;16.90;;;;;;;19.67;100.00;100617.69;5034914;28;20383;-75
2022/06/24 08:11:53;;;;;;;23.55;17.30;;;;;;;19.85;100.00;100625.22;5032116;28;20025;-74
2022/06/24 08:14:20;;;;;;;29.52;18.90;;;;;;;19.94;100.00;100623.25;5025925;28;20105;-74
2022/06/24 08:16:45;;;;;;;30.88;17.65;;;;;;;19.87;100.00;100625.19;5015673;28;20048;-76
2022/06/24 08:19:11;;;;;;;27.35;19.35;;;;;;;19.87;100.00;100626.09;5034855;28;20064;-75
2022/06/24 08:21:36;;;;;;;25.13;18.38;;;;;;;19.79;100.00;100620.03;5035683;28;20022;-77
2022/06/24 08:24:03;;;;;;;23.70;17.58;;;;;;;19.85;100.00;100617.22;5035061;28;20033;-76
2022/06/24 08:26:28;;;;;;;24.08;17.85;;;;;;;19.96;100.00;100621.44;5035592;28;20029;-77
2022/06/24 08:28:54;;;;;;;23.60;18.83;;;;;;;20.01;100.00;100622.19;5032761;28;20354;-75
2022/06/24 08:31:20;;;;;;;27.00;18.67;;;;;;;20.20;100.00;100618.09;5031935;28;20029;-76
2022/06/24 08:33:45;;;;;;;25.35;17.90;;;;;;;20.26;100.00;100610.84;5035034;28;20033;-74
2022/06/24 08:36:10;;;;;;;23.20;18.15;;;;;;;20.36;100.00;100610.53;5035337;28;20037;-76
2022/06/24 08:38:36;;;;;;;20.40;16.08;;;;;;;20.64;100.00;100611.53;5035332;28;20377;-76
2022/06/24 08:41:02;;;;;;;22.17;16.42;;;;;;;20.76;100.00;100605.00;5033091;28;20041;-76
2022/06/24 08:43:33;;;;;;;20.48;14.77;;;;;;;20.91;100.00;100609.03;5034573;28;20381;-76
2022/06/24 08:46:02;;;;;;;20.60;15.60;;;;;;;20.92;100.00;100608.97;5029133;28;20041;-75
2022/06/24 08:48:29;;;;;;;20.05;15.18;;;;;;;21.01;100.00;100611.38;5034193;28;20057;-76
2022/06/24 08:50:57;;;;;;;17.60;14.80;;;;;;;20.95;100.00;100613.34;5034920;28;20025;-75
2022/06/24 08:53:24;;;;;;;21.80;15.80;;;;;;;20.74;100.00;100610.41;5032895;28;20054;-76
2022/06/24 08:55:50;;;;;;;23.17;16.15;;;;;;;20.67;100.00;100617.69;5032928;28;20040;-73
2022/06/24 08:58:17;;;;;;;21.23;15.55;;;;;;;20.65;100.00;100607.97;5034637;28;20041;-74
2022/06/24 09:00:43;;;;;;;22.48;15.23;;;;;;;20.46;100.00;100611.16;5034234;28;20029;-77
2022/06/24 09:03:09;;;;;;;23.60;15.00;;;;;;;20.54;100.00;100622.50;5023697;28;20041;-77
2022/06/24 09:05:35;;;;;;;24.25;14.75;;;;;;;20.47;100.00;100620.03;5030530;28;20432;-76
2022/06/24 09:08:12;;;;;;;20.30;15.05;;;;;;;20.51;100.00;100617.25;5028393;28;20030;-76
2022/06/24 09:10:40;;;;;;;29.80;16.90;;;;;;;20.64;100.00;100620.44;5034837;28;20036;-76
2022/06/24 09:13:06;;;;;;;17.90;13.60;;;;;;;20.63;100.00;100620.47;5034537;28;20437;-77
2022/06/24 09:15:32;;;;;;;18.05;13.05;;;;;;;20.57;100.00;100615.31;5034081;28;20454;-77
2022/06/24 09:18:00;;;;;;;17.42;13.02;;;;;;;20.62;100.00;100614.28;5034202;28;20072;-77
2022/06/24 09:20:29;;;;;;;18.65;13.48;;;;;;;20.76;100.00;100611.22;5028810;28;20713;-76
2022/06/24 09:23:07;;;;;;;17.33;12.85;;;;;;;20.96;100.00;100613.31;5032921;28;20060;-76
2022/06/24 09:25:47;;;;;;;18.63;12.80;;;;;;;20.95;100.00;100610.69;5034296;28;20164;-77
2022/06/24 09:28:23;;;;;;;16.77;12.77;;;;;;;21.01;100.00;100615.81;5033709;28;20034;-77
2022/06/24 09:30:50;;;;;;;16.92;11.52;;;;;;;21.00;100.00;100616.78;5034245;28;20389;-77
2022/06/24 09:33:18;;;;;;;14.95;10.55;;;;;;;21.03;100.00;100619.34;5034213;28;20488;-78
2022/06/24 09:35:44;;;;;;;14.82;11.10;;;;;;;21.28;100.00;100613.22;5032235;28;20499;-76
2022/06/24 09:38:10;;;;;;;21.27;11.45;;;;;;;21.38;100.00;100609.34;5030747;28;20025;-79
2022/06/24 09:40:35;;;;;;;16.02;11.23;;;;;;;21.44;100.00;100598.41;5034382;28;20056;-77
2022/06/24 09:43:04;;;;;;;13.75;10.18;;;;;;;21.70;100.00;100608.31;5032920;28;20075;-75
2022/06/24 09:45:46;;;;;;;17.88;11.52;;;;;;;21.58;100.00;100605.16;5033271;28;20425;-77
2022/06/24 09:48:24;;;;;;;14.70;9.57;;;;;;;21.78;100.00;100602.69;5031918;28;20032;-77
2022/06/24 09:50:49;;;;;;;19.98;10.63;;;;;;;21.97;100.00;100602.06;5030880;28;20056;-73
2022/06/24 09:53:15;;;;;;;17.60;10.25;;;;;;;22.14;100.00;100609.47;5029837;28;20071;-75
2022/06/24 09:55:40;;;;;;;12.40;10.80;;;;;;;22.26;100.00;100610.84;5032656;28;20036;-75
2022/06/24 09:58:06;;;;;;;15.40;8.93;;;;;;;22.24;100.00;100606.41;5031217;28;20068;-74
2022/06/24 10:00:43;;;;;;;10.88;8.30;;;;;;;22.10;100.00;100608.75;5030948;28;20373;-75
2022/06/24 10:03:11;;;;;;;11.93;8.55;;;;;;;21.78;100.00;100618.75;5033370;28;20109;-74
2022/06/24 10:05:42;;;;;;;15.68;9.27;;;;;;;21.75;100.00;100602.78;5032323;28;20029;-75
2022/06/24 10:08:17;;;;;;;13.90;9.07;;;;;;;21.65;100.00;100610.25;5033709;28;20080;-76
2022/06/24 10:10:52;;;;;;;15.90;8.02;;;;;;;21.78;100.00;100607.16;5031531;28;20116;-76
2022/06/24 10:13:32;;;;;;;16.55;9.60;;;;;;;22.06;100.00;100602.59;5032504;28;20385;-75
2022/06/24 10:16:03;;;;;;;12.40;7.25;;;;;;;22.32;100.00;100603.47;5033140;28;20384;-77
2022/06/24 10:18:40;;;;;;;8.20;5.50;;;;;;;22.24;100.00;100606.41;5031932;28;20033;-75
2022/06/24 10:21:07;;;;;;;10.35;5.47;;;;;;;22.32;100.00;100598.13;5032547;28;20039;-75
2022/06/24 10:23:37;;;;;;;9.80;5.07;;;;;;;22.61;100.00;100608.72;5031800;28;20021;-74
2022/06/24 10:26:29;;;;;;;4.78;3.00;;;;;;;22.47;100.00;100606.56;5033234;28;20495;-74
2022/06/24 10:29:04;;;;;;;4.53;2.75;;;;;;;22.21;100.00;100617.25;5020585;28;20147;-73
2022/06/24 10:31:41;;;;;;;4.05;2.83;;;;;;;21.92;100.00;100615.63;5033228;28;20091;-75
2022/06/24 10:34:07;;;;;;;7.03;2.08;;;;;;;21.99;100.00;100611.78;5030800;28;20076;-73
2022/06/24 10:36:32;;;;;;;5.78;2.10;;;;;;;22.01;100.00;100614.41;5032078;28;20029;-74
2022/06/24 10:39:18;;;;;;;4.78;2.10;;;;;;;22.31;100.00;100606.22;5032632;28;20030;-74
2022/06/24 10:41:46;;;;;;;3.13;2.03;;;;;;;22.60;100.00;100598.94;5032500;28;20033;-74
2022/06/24 10:44:22;;;;;;;11.10;3.55;;;;;;;22.97;100.00;100595.72;5032987;28;20040;-74
2022/06/24 10:47:07;;;;;;;6.28;3.03;;;;;;;23.03;100.00;100594.59;5031616;28;20029;-74
2022/06/24 10:49:56;;;;;;;5.70;2.33;;;;;;;23.01;98.24;100599.16;5029020;28;20037;-73
2022/06/24 10:52:55;;;;;;;5.32;2.05;;;;;;;23.18;99.79;100596.72;5014373;28;20057;-74
2022/06/24 10:55:23;;;;;;;4.80;2.35;;;;;;;23.33;100.00;100594.34;5031794;28;20405;-76
2022/06/24 10:57:49;;;;;;;7.05;2.75;;;;;;;23.30;100.00;100591.78;5031748;28;20481;-75
2022/06/24 11:00:20;;;;;;;4.00;2.15;;;;;;;23.21;96.78;100599.28;5035905;28;20033;-74
2022/06/24 11:02:49;;;;;;;7.65;3.47;;;;;;;23.34;95.97;100585.34;5034126;28;20053;-76
2022/06/24 11:05:30;;;;;;;10.27;2.08;;;;;;;23.30;91.87;100591.78;5030522;28;20025;-76
2022/06/24 11:07:56;;;;;;;3.30;2.13;;;;;;;23.45;94.61;100591.16;5030362;28;20105;-75